Time;durP1;ratioP1;P1;durP2;ratioP2;P2;SDS_P1;SDS_P2;PMS_P1;PMS_P2;Temp;Humidity;BMP_temperature;BMP_pressure;BME280_temperature;BME280_humidity;BME280_pressure;Samples;Min_cycle;Max_cycle;Signal;HPM_P1;HPM_P2
2023/03/30 00:01:24;;;;;;;6.72;2.38;;;15.60;99.90;;;;;;5153410;27;20027;-73
2023/03/30 00:03:49;;;;;;;6.82;2.45;;;15.40;99.90;;;;;;5154845;27;20377;-75
2023/03/30 00:06:21;;;;;;;8.55;2.30;;;15.30;99.90;;;;;;5139822;27;20022;-74
2023/03/30 00:08:48;;;;;;;18.98;2.67;;;15.30;99.90;;;;;;5152500;27;20491;-74
2023/03/30 00:11:16;;;;;;;19.30;3.28;;;15.30;99.90;;;;;;5138734;27;20025;-74
2023/03/30 00:13:43;;;;;;;11.02;2.63;;;15.30;99.90;;;;;;5145303;27;20027;-74
2023/03/30 00:16:12;;;;;;;10.52;3.33;;;15.30;99.90;;;;;;5144981;27;20033;-73
2023/03/30 00:18:38;;;;;;;13.13;3.03;;;15.40;99.90;;;;;;5153434;27;20033;-74
2023/03/30 00:21:06;;;;;;;10.82;2.33;;;15.40;99.90;;;;;;5153912;27;20035;-72
2023/03/30 00:23:32;;;;;;;12.82;2.45;;;15.40;99.90;;;;;;5153099;27;20023;-74
2023/03/30 00:25:59;;;;;;;13.55;2.65;;;15.40;99.90;;;;;;5153863;27;20114;-73
2023/03/30 00:28:25;;;;;;;13.23;2.40;;;15.40;99.90;;;;;;5133958;27;20056;-73
2023/03/30 00:30:52;;;;;;;12.35;2.53;;;15.40;99.90;;;;;;5136144;27;20092;-73
2023/03/30 00:33:19;;;;;;;17.13;3.22;;;15.40;99.90;;;;;;5142810;27;20023;-74
2023/03/30 00:35:54;;;;;;;13.13;2.50;;;15.40;99.90;;;;;;5154120;27;20058;-74
2023/03/30 00:38:20;;;;;;;20.02;2.78;;;15.40;99.90;;;;;;5152169;27;20022;-73
2023/03/30 00:40:54;;;;;;;11.18;2.30;;;15.40;99.90;;;;;;5153540;27;20030;-74
2023/03/30 00:43:20;;;;;;;14.75;3.40;;;15.50;99.90;;;;;;5136868;27;20139;-75
2023/03/30 00:45:46;;;;;;;11.50;2.25;;;15.50;99.90;;;;;;5133730;27;20040;-75
2023/03/30 00:48:14;;;;;;;16.90;2.53;;;15.50;99.90;;;;;;5132872;27;20457;-74
2023/03/30 00:50:49;;;;;;;16.02;2.95;;;15.50;99.90;;;;;;5142897;27;20063;-75
2023/03/30 00:53:21;;;;;;;17.63;3.28;;;15.40;99.90;;;;;;5133068;27;20031;-75
2023/03/30 00:55:49;;;;;;;11.98;2.67;;;15.40;99.90;;;;;;5136671;27;20079;-74
2023/03/30 00:58:17;;;;;;;17.45;2.90;;;15.50;99.90;;;;;;5140054;27;20072;-73
2023/03/30 01:00:45;;;;;;;10.32;2.83;;;15.50;99.90;;;;;;5133332;27;20023;-74
2023/03/30 01:03:32;;;;;;;19.90;3.40;;;15.50;99.90;;;;;;5132379;27;20433;-73
2023/03/30 01:06:01;;;;;;;13.93;3.00;;;15.70;99.90;;;;;;5137703;27;20094;-73
2023/03/30 01:08:31;;;;;;;18.10;3.22;;;15.80;99.90;;;;;;5140670;27;20015;-73
2023/03/30 01:11:00;;;;;;;14.27;2.92;;;15.90;99.90;;;;;;5133161;27;20038;-74
2023/03/30 01:13:31;;;;;;;15.35;2.85;;;15.90;99.90;;;;;;5138709;27;20154;-73
2023/03/30 01:16:06;;;;;;;19.02;3.05;;;15.90;99.90;;;;;;5143530;27;20030;-74
2023/03/30 01:18:43;;;;;;;12.93;3.00;;;15.90;99.90;;;;;;5143356;27;20106;-74
2023/03/30 01:21:32;;;;;;;15.13;3.13;;;15.80;99.90;;;;;;5151993;27;20457;-74
2023/03/30 01:24:35;;;;;;;15.73;2.95;;;15.70;99.90;;;;;;5144741;27;20034;-74
2023/03/30 01:27:23;;;;;;;14.27;3.03;;;15.70;99.90;;;;;;5153371;27;20027;-75
2023/03/30 01:30:27;;;;;;;17.88;2.92;;;15.70;99.90;;;;;;5152005;27;20026;-74
2023/03/30 01:33:13;;;;;;;16.20;3.30;;;15.60;99.90;;;;;;5109983;27;20091;-74
2023/03/30 01:36:07;;;;;;;15.80;3.50;;;15.60;99.90;;;;;;5151658;27;20362;-74
2023/03/30 01:38:56;;;;;;;11.65;2.88;;;15.40;99.90;;;;;;5133284;27;20023;-74
2023/03/30 01:41:41;;;;;;;13.03;2.63;;;15.20;99.90;;;;;;5132172;27;20309;-74
2023/03/30 01:44:22;;;;;;;17.42;2.85;;;15.00;99.90;;;;;;5142748;27;20038;-72
2023/03/30 01:46:54;;;;;;;15.85;2.72;;;14.90;99.90;;;;;;5141174;27;20073;-75
2023/03/30 01:49:41;;;;;;;11.35;2.70;;;14.80;99.90;;;;;;5131995;27;20084;-74
2023/03/30 01:52:29;;;;;;;19.30;3.63;;;14.50;99.90;;;;;;5149437;27;20038;-72
2023/03/30 01:55:14;;;;;;;18.77;4.25;;;14.30;99.90;;;;;;5150427;27;20073;-74
2023/03/30 01:57:42;;;;;;;19.30;3.45;;;14.10;99.90;;;;;;5143897;27;20111;-75
2023/03/30 02:00:16;;;;;;;11.80;2.70;;;14.00;99.90;;;;;;5141176;27;20031;-72
2023/03/30 02:02:51;;;;;;;16.90;2.65;;;14.00;99.90;;;;;;5142671;27;20038;-73
2023/03/30 02:05:19;;;;;;;12.80;3.03;;;14.00;99.90;;;;;;5140657;27;20066;-74
2023/03/30 02:08:02;;;;;;;12.30;2.63;;;14.10;99.90;;;;;;5144620;27;20026;-74
2023/03/30 02:10:32;;;;;;;12.90;2.17;;;14.10;99.90;;;;;;5140544;27;20026;-73
2023/03/30 02:12:59;;;;;;;14.60;3.00;;;14.20;99.90;;;;;;5144460;27;20059;-74
2023/03/30 02:15:29;;;;;;;9.50;2.72;;;14.10;99.90;;;;;;5137992;27;20628;-73
2023/03/30 02:17:54;;;;;;;16.60;3.80;;;14.10;99.90;;;;;;5143180;27;20110;-72
2023/03/30 02:20:20;;;;;;;11.98;3.30;;;14.20;99.90;;;;;;5142410;27;20117;-74
2023/03/30 02:22:46;;;;;;;12.93;2.85;;;14.20;99.90;;;;;;5141800;27;20031;-74
2023/03/30 02:25:12;;;;;;;22.95;4.43;;;14.20;99.90;;;;;;5142634;27;20031;-73
2023/03/30 02:27:40;;;;;;;14.32;2.70;;;14.20;99.90;;;;;;5144064;27;20037;-74
2023/03/30 02:30:07;;;;;;;17.27;3.38;;;14.20;99.90;;;;;;5143187;27;20098;-71
2023/03/30 02:32:40;;;;;;;24.23;3.95;;;14.20;99.90;;;;;;5120164;27;20023;-74
2023/03/30 02:35:09;;;;;;;11.10;2.83;;;14.20;99.90;;;;;;5137350;27;20031;-73
2023/03/30 02:38:06;;;;;;;15.07;3.08;;;14.20;99.90;;;;;;5140667;27;20043;-74
2023/03/30 02:40:55;;;;;;;19.70;3.90;;;14.20;99.90;;;;;;5142007;27;20041;-75
2023/03/30 02:43:50;;;;;;;13.60;3.05;;;14.20;99.90;;;;;;5143731;27;20064;-74
2023/03/30 02:46:27;;;;;;;13.25;3.08;;;14.20;99.90;;;;;;5140981;27;20401;-75
2023/03/30 02:49:00;;;;;;;12.30;3.05;;;14.20;99.90;;;;;;5141166;27;20439;-75
2023/03/30 02:51:44;;;;;;;12.70;3.05;;;14.20;99.90;;;;;;5142070;27;20023;-74
2023/03/30 02:54:49;;;;;;;12.23;2.75;;;14.20;99.90;;;;;;5141155;27;20036;-73
2023/03/30 02:57:32;;;;;;;14.80;2.67;;;14.10;99.90;;;;;;5144242;27;20118;-75
2023/03/30 03:00:22;;;;;;;11.45;3.03;;;14.00;99.90;;;;;;5154046;27;20054;-73
2023/03/30 03:02:52;;;;;;;18.97;3.30;;;13.90;99.90;;;;;;5107690;27;20374;-74
2023/03/30 03:05:19;;;;;;;14.00;3.53;;;13.70;99.90;;;;;;5146568;27;20534;-72
2023/03/30 03:07:47;;;;;;;14.30;3.88;;;13.50;99.90;;;;;;5146644;27;20034;-73
2023/03/30 03:10:13;;;;;;;23.65;3.90;;;13.30;99.90;;;;;;5145828;27;20425;-75
2023/03/30 03:12:41;;;;;;;11.13;3.38;;;13.20;99.90;;;;;;5148984;27;20018;-74
2023/03/30 03:15:07;;;;;;;15.85;3.88;;;13.00;99.90;;;;;;5150334;27;20136;-72
2023/03/30 03:17:35;;;;;;;14.73;2.97;;;12.80;99.90;;;;;;5145698;27;20054;-75
2023/03/30 03:20:02;;;;;;;20.92;3.38;;;12.70;99.90;;;;;;5146711;27;20030;-74
2023/03/30 03:22:28;;;;;;;16.17;4.10;;;12.50;99.90;;;;;;5143089;27;20076;-74
2023/03/30 03:24:54;;;;;;;27.40;4.43;;;12.30;99.90;;;;;;5144172;27;20394;-73
2023/03/30 03:27:19;;;;;;;22.13;4.15;;;12.30;99.90;;;;;;5147937;27;20435;-73
2023/03/30 03:29:46;;;;;;;21.45;4.13;;;12.30;99.90;;;;;;5148133;27;20034;-73
2023/03/30 03:32:12;;;;;;;23.77;3.63;;;12.20;99.90;;;;;;5148423;27;20516;-73
2023/03/30 03:34:38;;;;;;;18.73;3.63;;;12.30;99.90;;;;;;5144362;27;20062;-74
2023/03/30 03:37:04;;;;;;;30.15;4.72;;;12.30;99.90;;;;;;5144942;27;20455;-73
2023/03/30 03:39:31;;;;;;;20.63;4.40;;;12.30;99.90;;;;;;5146079;27;20026;-74
2023/03/30 03:41:56;;;;;;;14.32;3.53;;;12.30;99.90;;;;;;5147833;27;20030;-73
2023/03/30 03:44:22;;;;;;;16.88;3.70;;;12.30;99.90;;;;;;5143920;27;20026;-73
2023/03/30 03:46:47;;;;;;;17.52;4.00;;;12.30;99.90;;;;;;5146157;27;20057;-73
2023/03/30 03:49:13;;;;;;;16.40;3.38;;;12.40;99.90;;;;;;5147187;27;20026;-73
2023/03/30 03:51:39;;;;;;;13.15;3.35;;;12.50;99.90;;;;;;5141602;27;20117;-73
2023/03/30 03:54:04;;;;;;;18.77;4.65;;;12.50;99.90;;;;;;5142460;27;20019;-72
2023/03/30 03:56:30;;;;;;;23.48;4.35;;;12.50;99.90;;;;;;5150834;27;20385;-73
2023/03/30 03:58:56;;;;;;;18.15;3.78;;;12.70;99.90;;;;;;5141265;27;20031;-73
2023/03/30 04:01:21;;;;;;;12.95;3.25;;;12.60;99.90;;;;;;5153244;27;20034;-73
2023/03/30 04:03:47;;;;;;;11.77;2.83;;;12.60;99.90;;;;;;5154951;27;20048;-73
2023/03/30 04:06:12;;;;;;;18.95;4.18;;;12.60;99.90;;;;;;5146604;27;20118;-74
2023/03/30 04:08:38;;;;;;;19.60;3.70;;;12.60;99.90;;;;;;5134975;27;20038;-74
2023/03/30 04:11:10;;;;;;;23.42;3.47;;;12.60;99.90;;;;;;5134988;27;20458;-73
2023/03/30 04:13:37;;;;;;;16.27;3.53;;;12.60;99.90;;;;;;5146956;27;20039;-74
2023/03/30 04:16:03;;;;;;;12.40;3.90;;;12.60;99.90;;;;;;5142194;27;20031;-74
2023/03/30 04:18:32;;;;;;;22.13;4.32;;;12.60;99.90;;;;;;5133693;27;20023;-73
2023/03/30 04:21:03;;;;;;;16.37;3.50;;;12.70;99.90;;;;;;5149149;27;20456;-74
2023/03/30 04:23:33;;;;;;;19.02;4.35;;;12.70;99.90;;;;;;5139109;27;20102;-74
2023/03/30 04:26:03;;;;;;;21.38;3.97;;;12.70;99.90;;;;;;5154240;27;20030;-74
2023/03/30 04:28:30;;;;;;;17.10;4.00;;;12.70;99.90;;;;;;5134876;27;20031;-74
2023/03/30 04:30:59;;;;;;;12.48;3.53;;;12.70;99.90;;;;;;5137791;27;20023;-74
2023/03/30 04:33:25;;;;;;;13.15;3.22;;;12.70;99.90;;;;;;5152219;27;20022;-74
2023/03/30 04:35:51;;;;;;;17.67;3.75;;;12.80;99.90;;;;;;5133856;27;20110;-74
2023/03/30 04:38:21;;;;;;;14.63;3.53;;;12.90;99.90;;;;;;5133718;27;20514;-74
2023/03/30 04:40:50;;;;;;;14.13;4.50;;;12.90;99.90;;;;;;5134679;27;20118;-74
2023/03/30 04:43:20;;;;;;;14.48;3.50;;;12.90;99.90;;;;;;5138291;27;20027;-74
2023/03/30 04:45:50;;;;;;;11.02;3.95;;;12.90;99.90;;;;;;5132942;27;20047;-74
2023/03/30 04:48:16;;;;;;;16.42;3.65;;;12.80;99.90;;;;;;5136735;27;20063;-75
2023/03/30 04:50:42;;;;;;;14.45;4.85;;;12.70;99.90;;;;;;5153460;27;20388;-75
2023/03/30 04:53:09;;;;;;;15.15;3.22;;;12.70;99.90;;;;;;5152675;27;20035;-74
2023/03/30 04:55:35;;;;;;;12.90;3.63;;;12.60;99.90;;;;;;5147798;27;20029;-74
2023/03/30 04:58:01;;;;;;;17.10;4.25;;;12.50;99.90;;;;;;5133490;27;20054;-73
2023/03/30 05:00:26;;;;;;;18.25;4.38;;;12.40;99.90;;;;;;5135529;27;20508;-73
2023/03/30 05:02:52;;;;;;;16.30;5.05;;;12.40;99.90;;;;;;5138703;27;20027;-73
2023/03/30 05:05:18;;;;;;;17.48;4.40;;;12.30;99.90;;;;;;5131797;27;20035;-72
2023/03/30 05:07:45;;;;;;;21.98;4.10;;;12.30;99.90;;;;;;5153680;27;20369;-73
2023/03/30 05:10:11;;;;;;;22.08;4.22;;;12.30;99.90;;;;;;5149314;27;20418;-72
2023/03/30 05:12:36;;;;;;;21.08;4.20;;;12.40;99.90;;;;;;5150889;27;20027;-73
2023/03/30 05:15:02;;;;;;;12.65;3.35;;;12.50;99.90;;;;;;5133639;27;20061;-73
2023/03/30 05:17:32;;;;;;;15.85;3.75;;;12.60;99.90;;;;;;5141407;27;20331;-73
2023/03/30 05:19:57;;;;;;;21.07;4.07;;;12.80;99.90;;;;;;5149136;27;20138;-73
2023/03/30 05:22:23;;;;;;;18.15;4.20;;;12.90;99.90;;;;;;5132157;27;20038;-73
2023/03/30 05:24:48;;;;;;;19.52;4.60;;;13.00;99.90;;;;;;5146062;27;20031;-74
2023/03/30 05:27:14;;;;;;;22.77;5.05;;;13.20;99.90;;;;;;5151838;27;20048;-73
2023/03/30 05:29:39;;;;;;;10.20;3.38;;;13.20;99.90;;;;;;5152648;27;20102;-74
2023/03/30 05:32:05;;;;;;;18.33;3.67;;;13.30;99.90;;;;;;5141010;27;20122;-71
2023/03/30 05:34:31;;;;;;;13.15;3.40;;;13.30;99.90;;;;;;5137954;27;20023;-75
2023/03/30 05:36:56;;;;;;;22.55;4.68;;;13.30;99.90;;;;;;5149141;27;20023;-73
2023/03/30 05:39:22;;;;;;;19.85;4.20;;;13.40;99.90;;;;;;5147340;27;20041;-74
2023/03/30 05:41:47;;;;;;;22.23;4.88;;;13.40;99.90;;;;;;5133196;27;20027;-75
2023/03/30 05:44:13;;;;;;;19.50;4.82;;;13.40;99.90;;;;;;5141088;27;20392;-73
2023/03/30 05:46:39;;;;;;;20.05;4.30;;;13.40;99.90;;;;;;5133849;27;20130;-73
2023/03/30 05:49:05;;;;;;;20.02;4.47;;;13.50;99.90;;;;;;5143295;27;20022;-73
2023/03/30 05:51:30;;;;;;;15.07;3.65;;;13.50;99.90;;;;;;5145741;27;20034;-75
2023/03/30 05:53:56;;;;;;;18.85;3.97;;;13.60;99.90;;;;;;5139968;27;20063;-75
2023/03/30 05:56:23;;;;;;;18.63;4.32;;;13.60;99.90;;;;;;5141288;27;20029;-75
2023/03/30 05:58:49;;;;;;;16.15;3.72;;;13.70;99.90;;;;;;5142208;27;20019;-75
2023/03/30 06:01:15;;;;;;;16.40;4.10;;;13.70;99.90;;;;;;5139894;27;20037;-75
2023/03/30 06:03:41;;;;;;;19.17;4.47;;;13.70;99.90;;;;;;5148971;27;20034;-76
2023/03/30 06:06:07;;;;;;;16.23;4.03;;;13.80;99.90;;;;;;5145383;27;20452;-78
2023/03/30 06:08:33;;;;;;;19.30;3.88;;;13.80;99.90;;;;;;5139152;27;20496;-75
2023/03/30 06:10:59;;;;;;;20.27;4.78;;;13.80;99.90;;;;;;5140388;27;20101;-74
2023/03/30 06:13:26;;;;;;;16.20;3.63;;;13.80;99.90;;;;;;5137259;27;20593;-76
2023/03/30 06:15:51;;;;;;;18.95;4.45;;;13.80;99.90;;;;;;5148076;27;20034;-76
2023/03/30 06:18:17;;;;;;;15.27;4.30;;;13.80;99.90;;;;;;5146965;27;20030;-76
2023/03/30 06:20:46;;;;;;;23.30;4.10;;;13.70;99.90;;;;;;5148144;27;20541;-76
2023/03/30 06:23:12;;;;;;;21.02;4.75;;;13.60;99.90;;;;;;5150294;27;20035;-75
2023/03/30 06:25:37;;;;;;;16.17;4.90;;;13.40;99.90;;;;;;5151399;27;20549;-75
2023/03/30 06:28:03;;;;;;;14.95;3.13;;;13.20;99.90;;;;;;5152062;27;20056;-75
2023/03/30 06:30:28;;;;;;;17.92;4.43;;;13.10;99.90;;;;;;5140544;27;20802;-76
2023/03/30 06:32:54;;;;;;;21.55;4.50;;;13.00;99.90;;;;;;5143521;27;20149;-76
2023/03/30 06:35:20;;;;;;;18.67;3.63;;;12.90;99.90;;;;;;5146020;27;20031;-77
2023/03/30 06:37:46;;;;;;;24.33;4.80;;;12.90;99.90;;;;;;5152547;27;20101;-76
2023/03/30 06:40:12;;;;;;;18.45;3.50;;;13.00;99.90;;;;;;5150962;27;20069;-76
2023/03/30 06:42:43;;;;;;;22.75;4.25;;;13.00;99.90;;;;;;5151220;27;20023;-75
2023/03/30 06:45:10;;;;;;;17.27;3.53;;;13.00;99.90;;;;;;5145487;27;20084;-74
2023/03/30 06:47:36;;;;;;;21.27;5.75;;;13.10;99.90;;;;;;5150494;27;20078;-76
2023/03/30 06:50:02;;;;;;;15.95;4.38;;;13.10;99.90;;;;;;5145450;27;20025;-74
2023/03/30 06:52:33;;;;;;;12.82;4.28;;;13.20;99.90;;;;;;5151126;27;20366;-74
2023/03/30 06:54:58;;;;;;;17.42;3.83;;;13.30;99.90;;;;;;5103102;27;20039;-74
2023/03/30 06:57:24;;;;;;;21.80;4.60;;;13.40;99.90;;;;;;5150219;27;20030;-74
2023/03/30 06:59:50;;;;;;;15.50;4.25;;;13.40;99.90;;;;;;5147042;27;20038;-74
2023/03/30 07:02:15;;;;;;;17.20;3.92;;;13.40;99.90;;;;;;5146629;27;20049;-73
2023/03/30 07:04:41;;;;;;;13.30;3.15;;;13.40;99.90;;;;;;5142270;27;20035;-73
2023/03/30 07:07:07;;;;;;;17.45;3.92;;;13.40;99.90;;;;;;5149616;27;20033;-72
2023/03/30 07:09:33;;;;;;;20.23;4.07;;;13.50;99.90;;;;;;5149817;27;20023;-73
2023/03/30 07:11:58;;;;;;;16.90;3.97;;;13.50;99.90;;;;;;5145024;27;20041;-74
2023/03/30 07:14:24;;;;;;;20.10;4.78;;;13.40;99.90;;;;;;5139530;27;20030;-73
2023/03/30 07:16:51;;;;;;;18.42;4.15;;;13.50;99.90;;;;;;5148764;27;20035;-74
2023/03/30 07:19:17;;;;;;;17.70;4.35;;;13.60;99.90;;;;;;5147536;27;20030;-74
2023/03/30 07:21:43;;;;;;;21.63;4.03;;;13.50;99.90;;;;;;5146682;27;20038;-75
2023/03/30 07:24:09;;;;;;;21.08;3.75;;;13.30;99.90;;;;;;5142978;27;20022;-74
2023/03/30 07:26:35;;;;;;;19.23;4.07;;;13.10;99.90;;;;;;5143280;27;20118;-74
2023/03/30 07:29:01;;;;;;;15.80;4.32;;;12.90;99.90;;;;;;5148634;27;20035;-74
2023/03/30 07:31:27;;;;;;;14.35;4.20;;;12.70;99.90;;;;;;5138574;27;20239;-73
2023/03/30 07:33:52;;;;;;;17.75;3.65;;;12.60;99.90;;;;;;5142214;27;20029;-74
2023/03/30 07:36:18;;;;;;;13.82;4.57;;;12.50;99.90;;;;;;5140021;27;20031;-74
2023/03/30 07:38:45;;;;;;;16.27;4.50;;;12.40;99.90;;;;;;5146822;27;20031;-73
2023/03/30 07:41:13;;;;;;;19.80;4.53;;;12.30;99.90;;;;;;5146560;27;20529;-73
2023/03/30 07:43:39;;;;;;;12.32;4.05;;;12.20;99.90;;;;;;5152817;27;20378;-74
2023/03/30 07:46:06;;;;;;;16.23;4.43;;;12.10;99.90;;;;;;5145501;27;20027;-72
2023/03/30 07:48:32;;;;;;;10.98;4.13;;;12.10;99.90;;;;;;5150528;27;20079;-74
2023/03/30 07:51:01;;;;;;;14.98;4.70;;;12.00;99.90;;;;;;5145551;27;20027;-74
2023/03/30 07:53:27;;;;;;;14.15;4.28;;;11.80;99.90;;;;;;5149831;27;20126;-75
2023/03/30 07:55:52;;;;;;;17.17;4.63;;;11.80;99.90;;;;;;5151096;27;20080;-74
2023/03/30 07:58:18;;;;;;;19.27;6.47;;;11.70;99.90;;;;;;5153011;27;20023;-74
2023/03/30 08:00:45;;;;;;;15.57;5.45;;;;;;;;;;5153339;27;20023;-74
2023/03/30 08:03:11;;;;;;;22.63;4.50;;;;;;;;;;5149888;27;20018;-74
2023/03/30 08:05:37;;;;;;;13.20;4.63;;;;;;;;;;5153774;27;20046;-73
2023/03/30 08:08:03;;;;;;;19.15;4.82;;;;;;;;;;5149127;27;20355;-73
2023/03/30 08:10:29;;;;;;;19.20;4.50;;;;;;;;;;5152503;27;20022;-73
2023/03/30 08:12:55;;;;;;;15.32;4.60;;;;;;;;;;5148546;27;20373;-72
2023/03/30 08:15:21;;;;;;;7.18;3.55;;;;;;;;;;5148956;27;20102;-72
2023/03/30 08:17:47;;;;;;;13.10;4.47;;;;;;;;;;5150918;27;20034;-73
2023/03/30 08:20:14;;;;;;;12.52;4.13;;;;;;;;;;5153153;27;20030;-73
2023/03/30 08:22:40;;;;;;;17.60;3.97;;;;;;;;;;5153699;27;20023;-73
2023/03/30 08:25:08;;;;;;;14.60;3.85;;;;;;;;;;5152476;27;20041;-72
2023/03/30 08:27:34;;;;;;;10.63;4.28;;;;;;;;;;5153604;27;20029;-73
2023/03/30 08:30:00;;;;;;;14.63;4.15;;;;;;;;;;5153780;27;20050;-74
2023/03/30 08:32:26;;;;;;;12.20;4.07;;;;;;;;;;5147714;27;20020;-75
2023/03/30 08:34:53;;;;;;;12.30;4.03;;;;;;;;;;5146746;27;20079;-73
2023/03/30 08:37:20;;;;;;;10.82;3.75;;;;;;;;;;5145258;27;20027;-75
2023/03/30 08:39:45;;;;;;;8.88;2.92;;;;;;;;;;5154151;27;20015;-73
2023/03/30 08:42:32;;;;;;;14.35;3.25;;;;;;;;;;5151989;27;20023;-73
2023/03/30 08:45:04;;;;;;;7.95;3.22;;;;;;;;;;5149493;27;20043;-75
2023/03/30 08:47:34;;;;;;;11.02;3.85;;;;;;;;;;5148165;27;20090;-74
2023/03/30 08:50:17;;;;;;;13.95;4.35;;;;;;;;;;5147839;27;20036;-75
2023/03/30 08:52:44;;;;;;;11.90;3.70;;;;;;;;;;5153808;27;20018;-74
2023/03/30 08:55:19;;;;;;;10.98;3.85;;;;;;;;;;5151137;27;20102;-73
2023/03/30 08:57:48;;;;;;;12.45;3.42;;;;;;;;;;5137914;27;20015;-74
2023/03/30 09:00:19;;;;;;;10.65;3.30;;;;;;;;;;5152486;27;20434;-74
2023/03/30 09:02:47;;;;;;;16.08;3.80;;;;;;;;;;5151144;27;20385;-72
2023/03/30 09:05:17;;;;;;;9.60;3.80;;;;;;;;;;5148385;27;20030;-73
2023/03/30 09:08:07;;;;;;;13.52;4.10;;;;;;;;;;5140810;27;20377;-73
2023/03/30 09:10:36;;;;;;;11.15;3.45;;;;;;;;;;5132263;27;20019;-74
2023/03/30 09:13:03;;;;;;;13.57;3.60;;;;;;;;;;5124906;27;20031;-74
2023/03/30 09:15:31;;;;;;;9.55;2.97;;;;;;;;;;5151071;27;20072;-74
2023/03/30 09:18:00;;;;;;;8.23;3.20;;;;;;;;;;5150432;27;20382;-73
2023/03/30 09:20:28;;;;;;;7.25;2.85;;;;;;;;;;5151667;27;20010;-73
2023/03/30 09:22:55;;;;;;;7.93;3.10;;;;;;;;;;5152883;27;20492;-73
2023/03/30 09:25:24;;;;;;;10.75;2.50;;;;;;;;;;5134719;27;20038;-73
2023/03/30 09:27:54;;;;;;;10.50;2.50;;;;;;;;;;5137704;27;20086;-75
2023/03/30 09:30:23;;;;;;;7.53;2.33;;;;;;;;;;5139094;27;20023;-75
2023/03/30 09:32:57;;;;;;;8.27;2.80;;;;;;;;;;5145686;27;20389;-74
2023/03/30 09:35:25;;;;;;;6.90;2.13;;;;;;;;;;5151752;27;20381;-74
2023/03/30 09:37:52;;;;;;;4.93;1.92;;;;;;;;;;5151162;27;20018;-75
2023/03/30 09:40:36;;;;;;;8.55;1.98;;;;;;;;;;5139622;27;20022;-74
2023/03/30 09:43:43;;;;;;;5.63;2.10;;;;;;;;;;5140335;27;20055;-74
2023/03/30 09:46:09;;;;;;;6.25;2.05;;;;;;;;;;5059514;28;20429;-72
2023/03/30 09:48:39;;;;;;;4.55;1.95;;;;;;;;;;5055961;28;20507;-74
2023/03/30 09:51:13;;;;;;;6.18;2.35;;;;;;;;;;5047104;28;20124;-72
2023/03/30 09:53:41;;;;;;;11.80;1.92;;;;;;;;;;5048754;28;20032;-74
2023/03/30 09:56:11;;;;;;;6.50;2.28;;;;;;;;;;5058069;28;20029;-74
2023/03/30 09:58:37;;;;;;;;;;;;;;;;;;5050939;28;20041;-74
2023/03/30 10:01:13;;;;;;;4.90;1.90;;;;;;;;;;5047188;28;19913;-72
2023/03/30 10:03:43;;;;;;;5.95;1.83;;;;;;;;;;5048597;28;20447;-74
2023/03/30 10:06:16;;;;;;;4.57;2.00;;;;;;;;;;5046500;28;20041;-73
2023/03/30 10:08:43;;;;;;;5.68;2.15;;;;;;;;;;5053412;28;20036;-74
2023/03/30 10:11:10;;;;;;;3.88;2.13;;;;;;;;;;5050740;28;20098;-73
2023/03/30 10:13:38;;;;;;;6.13;2.50;;;;;;;;;;5047682;28;20993;-74
2023/03/30 10:16:06;;;;;;;4.50;2.17;;;;;;;;;;5067911;27;20031;-75
2023/03/30 10:18:40;;;;;;;10.77;2.90;;;;;;;;;;5140570;27;20034;-74
2023/03/30 10:21:15;;;;;;;2.42;2.10;;;;;;;;;;5143808;27;20050;-73
2023/03/30 10:23:43;;;;;;;8.68;2.80;;;;;;;;;;5147606;27;20023;-74
2023/03/30 10:26:19;;;;;;;6.22;2.00;;;;;;;;;;5130281;27;20489;-75
2023/03/30 10:28:55;;;;;;;5.93;2.42;;;;;;;;;;5135758;27;20033;-74
2023/03/30 10:31:22;;;;;;;4.25;2.35;;;;;;;;;;5129359;27;20024;-74
2023/03/30 10:33:48;;;;;;;5.03;2.55;;;;;;;;;;5141715;27;20026;-75
2023/03/30 10:36:15;;;;;;;6.95;2.92;;;;;;;;;;5133470;27;20023;-74
2023/03/30 10:38:42;;;;;;;8.40;2.53;;;;;;;;;;5135814;27;20023;-74
2023/03/30 10:41:16;;;;;;;9.65;2.88;;;;;;;;;;5130369;28;20027;-73
2023/03/30 10:43:43;;;;;;;4.43;2.22;;;;;;;;;;5115320;27;20080;-73
2023/03/30 10:46:14;;;;;;;5.18;2.72;;;;;;;;;;5148178;27;20469;-74
2023/03/30 10:48:43;;;;;;;6.55;2.00;;;;;;;;;;5151346;27;20022;-73
2023/03/30 10:51:24;;;;;;;4.00;2.60;;;;;;;;;;5150507;27;20018;-72
2023/03/30 10:53:50;;;;;;;6.68;2.72;;;;;;;;;;5136248;27;20018;-73
2023/03/30 10:56:32;;;;;;;10.20;2.85;;;;;;;;;;5150592;27;20113;-75
2023/03/30 10:59:08;;;;;;;7.07;2.22;;;;;;;;;;5131203;27;20058;-74
2023/03/30 11:01:41;;;;;;;9.18;2.42;;;;;;;;;;5140485;27;20025;-76
2023/03/30 11:04:11;;;;;;;7.90;3.05;;;;;;;;;;5142514;27;20031;-72
2023/03/30 11:06:40;;;;;;;11.90;3.13;;;;;;;;;;5144228;27;20031;-75
2023/03/30 11:09:09;;;;;;;6.55;2.10;;;;;;;;;;5139283;27;20517;-72
2023/03/30 11:11:48;;;;;;;4.25;2.58;;;;;;;;;;5146364;27;20485;-75
2023/03/30 11:14:19;;;;;;;9.32;3.10;;;;;;;;;;5141826;27;20027;-74
2023/03/30 11:16:53;;;;;;;11.88;2.83;;;;;;;;;;5149672;27;20027;-75
2023/03/30 11:19:22;;;;;;;4.88;2.40;;;;;;;;;;5150492;27;20377;-74
2023/03/30 11:21:52;;;;;;;6.53;2.80;;;;;;;;;;5138727;27;20507;-74
2023/03/30 11:24:20;;;;;;;5.97;2.75;;;;;;;;;;5154070;27;20015;-75
2023/03/30 11:26:49;;;;;;;6.30;2.60;;;;;;;;;;5153496;27;20035;-74
2023/03/30 11:29:26;;;;;;;7.18;2.65;;;;;;;;;;5153670;27;20025;-74
2023/03/30 11:31:52;;;;;;;6.28;2.42;;;;;;;;;;5141924;27;20027;-77
2023/03/30 11:34:37;;;;;;;6.22;2.70;;;;;;;;;;5144799;27;20376;-75
2023/03/30 11:37:17;;;;;;;6.75;2.33;;;;;;;;;;5149042;27;20027;-75
2023/03/30 11:39:50;;;;;;;9.27;3.05;;;;;;;;;;5146171;27;20097;-75
2023/03/30 11:42:21;;;;;;;9.70;3.42;;;;;;;;;;5153444;27;20033;-75
2023/03/30 11:44:47;;;;;;;8.02;2.60;;;;;;;;;;5154619;27;20442;-74
2023/03/30 11:47:31;;;;;;;8.10;2.80;;;;;;;;;;5153051;27;20118;-75
2023/03/30 11:50:13;;;;;;;10.23;2.92;;;;;;;;;;5148272;27;20068;-75
2023/03/30 11:52:58;;;;;;;7.90;2.90;;;;;;;;;;5154918;27;20063;-75
2023/03/30 11:55:30;;;;;;;9.82;3.03;;;;;;;;;;5152842;27;20026;-76
2023/03/30 11:57:56;;;;;;;6.85;2.63;;;;;;;;;;5140725;27;20030;-75
2023/03/30 12:00:43;;;;;;;10.05;3.05;;;;;;;;;;5152863;27;20027;-75
2023/03/30 12:03:15;;;;;;;9.48;2.17;;;;;;;;;;5146133;27;20027;-73
2023/03/30 12:05:47;;;;;;;4.43;2.33;;;;;;;;;;5141283;27;20187;-75
2023/03/30 12:08:31;;;;;;;8.15;2.72;;;;;;;;;;5150385;27;20657;-76
2023/03/30 12:11:06;;;;;;;6.10;2.72;;;;;;;;;;5154128;27;20023;-74
2023/03/30 12:13:32;;;;;;;5.75;3.30;;;;;;;;;;5152770;27;20026;-76
2023/03/30 12:16:01;;;;;;;7.82;2.83;;;;;;;;;;5154260;27;20026;-76
2023/03/30 12:18:42;;;;;;;10.80;2.93;;;;;;;;;;5153442;27;20115;-74
2023/03/30 12:21:08;;;;;;;;;;;;;;;;;;5151965;27;20079;-72
2023/03/30 12:23:46;;;;;;;9.00;2.95;;;;;;;;;;5153126;27;19989;-75
2023/03/30 12:26:18;;;;;;;8.70;2.97;;;;;;;;;;5152719;27;20075;-75
2023/03/30 12:28:45;;;;;;;10.50;3.83;;;;;;;;;;5154155;27;20027;-75
2023/03/30 12:31:11;;;;;;;9.98;3.50;;;;;;;;;;5152498;27;20029;-75
2023/03/30 12:33:50;;;;;;;12.27;4.07;;;;;;;;;;5153803;27;20061;-74
2023/03/30 12:36:33;;;;;;;8.80;2.85;;;;;;;;;;5153150;27;20106;-75
2023/03/30 12:39:01;;;;;;;5.65;2.85;;;;;;;;;;5153913;27;20030;-75
2023/03/30 12:41:28;;;;;;;8.07;3.13;;;;;;;;;;5143830;27;20725;-75
2023/03/30 12:44:17;;;;;;;8.65;2.88;;;;;;;;;;5146210;27;20203;-75
2023/03/30 12:46:51;;;;;;;8.00;2.95;;;;;;;;;;5152439;27;20051;-75
2023/03/30 12:49:52;;;;;;;9.55;3.17;;;17.70;99.90;;;;;;5145041;27;20035;-75
2023/03/30 12:53:02;;;;;;;7.50;2.75;;;17.90;99.90;;;;;;5152963;27;20022;-75
2023/03/30 12:55:30;;;;;;;9.57;3.53;;;18.20;99.90;;;;;;5116981;27;20042;-73
2023/03/30 12:58:44;;;;;;;6.22;3.10;;;18.40;99.90;;;;;;5153637;27;20062;-73
2023/03/30 13:01:33;;;;;;;12.32;2.78;;;18.70;99.90;;;;;;5061167;27;20042;-72
2023/03/30 13:04:08;;;;;;;7.10;2.67;;;18.30;99.90;;;;;;5147672;27;20027;-75
2023/03/30 13:06:37;;;;;;;6.40;2.75;;;18.10;99.90;;;;;;5152059;27;20027;-76
2023/03/30 13:09:14;;;;;;;11.10;3.00;;;17.80;99.90;;;;;;5153725;27;20030;-74
2023/03/30 13:11:52;;;;;;;8.07;2.92;;;17.80;99.90;;;;;;5152876;27;20025;-74
2023/03/30 13:14:29;;;;;;;9.23;2.65;;;17.80;99.90;;;;;;5143051;27;20040;-74
2023/03/30 13:16:55;;;;;;;6.72;2.63;;;18.30;99.90;;;;;;5153190;27;20037;-74
2023/03/30 13:19:25;;;;;;;6.05;2.35;;;18.60;99.90;;;;;;5153113;27;20027;-74
2023/03/30 13:22:16;;;;;;;6.03;2.40;;;18.90;99.90;;;;;;5152938;27;20358;-74
2023/03/30 13:24:43;;;;;;;12.30;2.85;;;19.20;99.90;;;;;;5134610;27;20077;-73
2023/03/30 13:27:36;;;;;;;5.75;2.13;;;19.10;99.90;;;;;;5143315;27;20028;-72
2023/03/30 13:30:09;;;;;;;6.28;1.92;;;18.90;99.90;;;;;;5148326;27;20045;-79
2023/03/30 13:32:57;;;;;;;3.50;2.13;;;18.50;99.90;;;;;;5152045;27;20079;-77
2023/03/30 13:35:37;;;;;;;7.20;2.42;;;18.60;99.90;;;;;;5150948;27;20438;-77
2023/03/30 13:38:36;;;;;;;7.63;2.13;;;18.70;99.50;;;;;;5137594;27;20027;-77